sensor_id;sensor_type;location;lat;lon;timestamp;P1;durP1;ratioP1;P2;durP2;ratioP2
25299;SDS011;13241;51.208;4.432;2023-02-21T00:00:13;11.77;;;6.03;;
25299;SDS011;13241;51.208;4.432;2023-02-21T00:02:59;16.33;;;7.47;;
25299;SDS011;13241;51.208;4.432;2023-02-21T00:05:44;14.02;;;7.18;;
25299;SDS011;13241;51.208;4.432;2023-02-21T00:08:30;16.92;;;7.78;;
25299;SDS011;13241;51.208;4.432;2023-02-21T00:11:15;26.08;;;10.52;;
25299;SDS011;13241;51.208;4.432;2023-02-21T00:14:01;32.25;;;11.27;;
25299;SDS011;13241;51.208;4.432;2023-02-21T00:16:46;24.63;;;9.90;;
25299;SDS011;13241;51.208;4.432;2023-02-21T00:19:32;20.98;;;10.48;;
25299;SDS011;13241;51.208;4.432;2023-02-21T00:22:17;21.58;;;9.00;;
25299;SDS011;13241;51.208;4.432;2023-02-21T00:25:03;21.92;;;8.90;;
25299;SDS011;13241;51.208;4.432;2023-02-21T00:27:48;23.52;;;12.07;;
25299;SDS011;13241;51.208;4.432;2023-02-21T00:30:34;25.33;;;11.07;;
25299;SDS011;13241;51.208;4.432;2023-02-21T00:33:20;25.75;;;9.93;;
25299;SDS011;13241;51.208;4.432;2023-02-21T00:36:05;25.85;;;9.95;;
25299;SDS011;13241;51.208;4.432;2023-02-21T00:38:51;27.20;;;10.65;;
25299;SDS011;13241;51.208;4.432;2023-02-21T00:41:36;25.88;;;10.57;;
25299;SDS011;13241;51.208;4.432;2023-02-21T00:44:22;20.10;;;8.52;;
25299;SDS011;13241;51.208;4.432;2023-02-21T00:47:07;19.25;;;7.90;;
25299;SDS011;13241;51.208;4.432;2023-02-21T00:49:54;23.77;;;9.35;;
25299;SDS011;13241;51.208;4.432;2023-02-21T00:52:39;25.80;;;9.30;;
25299;SDS011;13241;51.208;4.432;2023-02-21T00:55:24;18.90;;;8.23;;
25299;SDS011;13241;51.208;4.432;2023-02-21T00:58:10;16.10;;;7.53;;
25299;SDS011;13241;51.208;4.432;2023-02-21T01:00:56;22.02;;;7.53;;
25299;SDS011;13241;51.208;4.432;2023-02-21T01:03:41;12.27;;;6.70;;
25299;SDS011;13241;51.208;4.432;2023-02-21T01:06:27;14.13;;;7.00;;
25299;SDS011;13241;51.208;4.432;2023-02-21T01:09:14;13.98;;;6.93;;
25299;SDS011;13241;51.208;4.432;2023-02-21T01:11:59;15.82;;;6.97;;
25299;SDS011;13241;51.208;4.432;2023-02-21T01:14:45;20.67;;;8.57;;
25299;SDS011;13241;51.208;4.432;2023-02-21T01:17:30;16.02;;;7.72;;
25299;SDS011;13241;51.208;4.432;2023-02-21T01:20:16;21.05;;;7.57;;
25299;SDS011;13241;51.208;4.432;2023-02-21T01:23:03;22.73;;;8.32;;
25299;SDS011;13241;51.208;4.432;2023-02-21T01:25:48;34.60;;;12.05;;
25299;SDS011;13241;51.208;4.432;2023-02-21T01:28:33;29.90;;;10.40;;
25299;SDS011;13241;51.208;4.432;2023-02-21T01:31:19;29.45;;;11.77;;
25299;SDS011;13241;51.208;4.432;2023-02-21T01:34:05;22.17;;;10.15;;
25299;SDS011;13241;51.208;4.432;2023-02-21T01:36:50;36.60;;;12.57;;
25299;SDS011;13241;51.208;4.432;2023-02-21T01:39:36;28.02;;;10.15;;
25299;SDS011;13241;51.208;4.432;2023-02-21T01:42:22;28.08;;;10.45;;
25299;SDS011;13241;51.208;4.432;2023-02-21T01:48:10;32.00;;;10.60;;
25299;SDS011;13241;51.208;4.432;2023-02-21T01:50:59;26.92;;;11.35;;
25299;SDS011;13241;51.208;4.432;2023-02-21T01:53:47;33.40;;;12.18;;
25299;SDS011;13241;51.208;4.432;2023-02-21T01:56:33;30.85;;;12.15;;
25299;SDS011;13241;51.208;4.432;2023-02-21T01:59:19;36.42;;;14.95;;
25299;SDS011;13241;51.208;4.432;2023-02-21T02:04:59;31.25;;;10.55;;
25299;SDS011;13241;51.208;4.432;2023-02-21T02:07:49;27.67;;;10.60;;
25299;SDS011;13241;51.208;4.432;2023-02-21T02:10:39;28.23;;;11.38;;
25299;SDS011;13241;51.208;4.432;2023-02-21T02:19:58;38.97;;;13.43;;
25299;SDS011;13241;51.208;4.432;2023-02-21T02:22:31;32.38;;;11.75;;
25299;SDS011;13241;51.208;4.432;2023-02-21T02:33:37;29.73;;;10.40;;
25299;SDS011;13241;51.208;4.432;2023-02-21T02:36:30;27.70;;;11.25;;
25299;SDS011;13241;51.208;4.432;2023-02-21T02:39:08;27.27;;;9.57;;
25299;SDS011;13241;51.208;4.432;2023-02-21T02:45:14;27.42;;;9.32;;
25299;SDS011;13241;51.208;4.432;2023-02-21T02:47:46;23.23;;;10.20;;
25299;SDS011;13241;51.208;4.432;2023-02-21T02:50:19;30.98;;;11.98;;
25299;SDS011;13241;51.208;4.432;2023-02-21T02:52:54;23.83;;;9.90;;
25299;SDS011;13241;51.208;4.432;2023-02-21T02:58:17;28.42;;;10.65;;
25299;SDS011;13241;51.208;4.432;2023-02-21T03:00:52;42.95;;;12.35;;
25299;SDS011;13241;51.208;4.432;2023-02-21T03:03:44;37.08;;;12.60;;
25299;SDS011;13241;51.208;4.432;2023-02-21T03:09:15;30.20;;;12.75;;
25299;SDS011;13241;51.208;4.432;2023-02-21T03:11:55;35.08;;;11.75;;
25299;SDS011;13241;51.208;4.432;2023-02-21T03:14:48;41.65;;;13.38;;
25299;SDS011;13241;51.208;4.432;2023-02-21T03:17:21;35.75;;;11.50;;
25299;SDS011;13241;51.208;4.432;2023-02-21T03:19:51;38.05;;;12.90;;
25299;SDS011;13241;51.208;4.432;2023-02-21T03:22:21;43.38;;;14.27;;
25299;SDS011;13241;51.208;4.432;2023-02-21T03:24:52;30.63;;;12.10;;
25299;SDS011;13241;51.208;4.432;2023-02-21T03:27:21;38.40;;;12.43;;
25299;SDS011;13241;51.208;4.432;2023-02-21T03:29:50;46.75;;;15.05;;
25299;SDS011;13241;51.208;4.432;2023-02-21T03:35:12;44.33;;;13.75;;
25299;SDS011;13241;51.208;4.432;2023-02-21T03:37:43;46.10;;;13.18;;
25299;SDS011;13241;51.208;4.432;2023-02-21T03:40:13;31.60;;;12.38;;
25299;SDS011;13241;51.208;4.432;2023-02-21T03:42:45;42.50;;;14.43;;
25299;SDS011;13241;51.208;4.432;2023-02-21T03:45:14;43.75;;;12.27;;
25299;SDS011;13241;51.208;4.432;2023-02-21T03:47:44;33.78;;;13.20;;
25299;SDS011;13241;51.208;4.432;2023-02-21T03:50:12;31.10;;;12.38;;
25299;SDS011;13241;51.208;4.432;2023-02-21T03:52:42;42.65;;;13.40;;
25299;SDS011;13241;51.208;4.432;2023-02-21T03:55:09;34.60;;;12.10;;
25299;SDS011;13241;51.208;4.432;2023-02-21T03:57:36;40.53;;;13.23;;
25299;SDS011;13241;51.208;4.432;2023-02-21T04:00:03;29.88;;;11.50;;
25299;SDS011;13241;51.208;4.432;2023-02-21T04:02:40;36.60;;;11.55;;
25299;SDS011;13241;51.208;4.432;2023-02-21T04:05:18;21.75;;;9.82;;
25299;SDS011;13241;51.208;4.432;2023-02-21T04:07:46;39.53;;;11.93;;
25299;SDS011;13241;51.208;4.432;2023-02-21T04:10:14;26.35;;;11.10;;
25299;SDS011;13241;51.208;4.432;2023-02-21T04:12:44;27.00;;;11.18;;
25299;SDS011;13241;51.208;4.432;2023-02-21T04:15:11;28.88;;;10.57;;
25299;SDS011;13241;51.208;4.432;2023-02-21T04:17:38;35.17;;;11.93;;
25299;SDS011;13241;51.208;4.432;2023-02-21T04:20:07;25.42;;;10.05;;
25299;SDS011;13241;51.208;4.432;2023-02-21T04:22:38;31.35;;;10.73;;
25299;SDS011;13241;51.208;4.432;2023-02-21T04:25:06;36.03;;;10.75;;
25299;SDS011;13241;51.208;4.432;2023-02-21T04:27:42;25.83;;;9.85;;
25299;SDS011;13241;51.208;4.432;2023-02-21T04:30:09;26.42;;;10.80;;
25299;SDS011;13241;51.208;4.432;2023-02-21T04:32:36;33.42;;;9.55;;
25299;SDS011;13241;51.208;4.432;2023-02-21T04:35:08;24.95;;;10.00;;
25299;SDS011;13241;51.208;4.432;2023-02-21T04:37:35;26.38;;;9.70;;
25299;SDS011;13241;51.208;4.432;2023-02-21T04:40:02;27.27;;;9.57;;
25299;SDS011;13241;51.208;4.432;2023-02-21T04:42:33;23.00;;;9.68;;
25299;SDS011;13241;51.208;4.432;2023-02-21T04:45:01;27.25;;;9.55;;
25299;SDS011;13241;51.208;4.432;2023-02-21T04:47:28;25.52;;;8.90;;
25299;SDS011;13241;51.208;4.432;2023-02-21T04:49:55;19.55;;;8.43;;
25299;SDS011;13241;51.208;4.432;2023-02-21T04:52:23;25.83;;;9.38;;
25299;SDS011;13241;51.208;4.432;2023-02-21T04:54:50;18.52;;;8.82;;
25299;SDS011;13241;51.208;4.432;2023-02-21T04:57:17;25.52;;;9.68;;
25299;SDS011;13241;51.208;4.432;2023-02-21T04:59:45;21.90;;;8.73;;
25299;SDS011;13241;51.208;4.432;2023-02-21T05:02:12;22.35;;;8.70;;
25299;SDS011;13241;51.208;4.432;2023-02-21T05:04:39;31.15;;;8.88;;
25299;SDS011;13241;51.208;4.432;2023-02-21T05:07:09;17.23;;;8.10;;
25299;SDS011;13241;51.208;4.432;2023-02-21T05:09:35;26.52;;;8.57;;
25299;SDS011;13241;51.208;4.432;2023-02-21T05:12:02;23.50;;;7.85;;
25299;SDS011;13241;51.208;4.432;2023-02-21T05:17:04;17.75;;;6.75;;
25299;SDS011;13241;51.208;4.432;2023-02-21T05:19:31;21.17;;;8.10;;
25299;SDS011;13241;51.208;4.432;2023-02-21T05:21:59;19.92;;;6.70;;
25299;SDS011;13241;51.208;4.432;2023-02-21T05:24:28;18.58;;;6.72;;
25299;SDS011;13241;51.208;4.432;2023-02-21T05:26:56;18.27;;;6.68;;
25299;SDS011;13241;51.208;4.432;2023-02-21T05:29:25;24.67;;;7.60;;
25299;SDS011;13241;51.208;4.432;2023-02-21T05:31:51;26.88;;;9.48;;
25299;SDS011;13241;51.208;4.432;2023-02-21T05:34:18;24.88;;;7.55;;
25299;SDS011;13241;51.208;4.432;2023-02-21T05:36:45;21.40;;;7.85;;
25299;SDS011;13241;51.208;4.432;2023-02-21T05:39:12;19.05;;;7.65;;
25299;SDS011;13241;51.208;4.432;2023-02-21T05:41:44;15.60;;;6.00;;
25299;SDS011;13241;51.208;4.432;2023-02-21T05:44:12;21.88;;;8.18;;
25299;SDS011;13241;51.208;4.432;2023-02-21T05:46:39;19.38;;;7.43;;
25299;SDS011;13241;51.208;4.432;2023-02-21T05:49:06;15.85;;;6.07;;
25299;SDS011;13241;51.208;4.432;2023-02-21T05:51:34;19.70;;;7.13;;
25299;SDS011;13241;51.208;4.432;2023-02-21T05:54:06;16.42;;;6.72;;
25299;SDS011;13241;51.208;4.432;2023-02-21T05:56:37;15.73;;;7.13;;
25299;SDS011;13241;51.208;4.432;2023-02-21T05:59:05;15.68;;;5.82;;
25299;SDS011;13241;51.208;4.432;2023-02-21T06:01:32;16.92;;;7.25;;
25299;SDS011;13241;51.208;4.432;2023-02-21T06:04:00;20.95;;;7.00;;
25299;SDS011;13241;51.208;4.432;2023-02-21T06:06:26;21.73;;;6.85;;
25299;SDS011;13241;51.208;4.432;2023-02-21T06:08:53;22.85;;;7.68;;
25299;SDS011;13241;51.208;4.432;2023-02-21T06:11:24;21.50;;;7.65;;
25299;SDS011;13241;51.208;4.432;2023-02-21T06:13:53;19.95;;;8.68;;
25299;SDS011;13241;51.208;4.432;2023-02-21T06:16:21;21.88;;;8.25;;
25299;SDS011;13241;51.208;4.432;2023-02-21T06:18:50;23.67;;;8.80;;
25299;SDS011;13241;51.208;4.432;2023-02-21T06:21:18;23.45;;;8.70;;
25299;SDS011;13241;51.208;4.432;2023-02-21T06:23:46;19.65;;;7.63;;
25299;SDS011;13241;51.208;4.432;2023-02-21T06:26:14;20.67;;;7.60;;
25299;SDS011;13241;51.208;4.432;2023-02-21T06:28:41;20.85;;;7.95;;
25299;SDS011;13241;51.208;4.432;2023-02-21T06:31:08;19.55;;;7.65;;
25299;SDS011;13241;51.208;4.432;2023-02-21T06:33:36;16.92;;;6.88;;
25299;SDS011;13241;51.208;4.432;2023-02-21T06:36:03;18.25;;;6.43;;
25299;SDS011;13241;51.208;4.432;2023-02-21T06:38:35;20.83;;;7.80;;
25299;SDS011;13241;51.208;4.432;2023-02-21T06:41:06;17.80;;;7.50;;
25299;SDS011;13241;51.208;4.432;2023-02-21T06:43:34;23.05;;;8.75;;
25299;SDS011;13241;51.208;4.432;2023-02-21T06:46:03;23.67;;;7.18;;
25299;SDS011;13241;51.208;4.432;2023-02-21T06:48:30;23.88;;;8.02;;
25299;SDS011;13241;51.208;4.432;2023-02-21T06:50:59;19.42;;;7.03;;
25299;SDS011;13241;51.208;4.432;2023-02-21T06:53:26;23.63;;;8.40;;
25299;SDS011;13241;51.208;4.432;2023-02-21T06:55:52;26.85;;;8.93;;
25299;SDS011;13241;51.208;4.432;2023-02-21T06:58:19;17.55;;;6.35;;
25299;SDS011;13241;51.208;4.432;2023-02-21T07:00:46;16.02;;;7.18;;
25299;SDS011;13241;51.208;4.432;2023-02-21T07:03:13;15.43;;;7.25;;
25299;SDS011;13241;51.208;4.432;2023-02-21T07:05:39;19.73;;;7.18;;
25299;SDS011;13241;51.208;4.432;2023-02-21T07:08:06;27.67;;;7.00;;
25299;SDS011;13241;51.208;4.432;2023-02-21T07:10:33;15.43;;;5.97;;
25299;SDS011;13241;51.208;4.432;2023-02-21T07:13:00;15.77;;;6.07;;
25299;SDS011;13241;51.208;4.432;2023-02-21T07:15:27;13.90;;;6.32;;
25299;SDS011;13241;51.208;4.432;2023-02-21T07:17:54;13.40;;;5.70;;
25299;SDS011;13241;51.208;4.432;2023-02-21T07:20:21;13.15;;;5.00;;
25299;SDS011;13241;51.208;4.432;2023-02-21T07:22:47;14.35;;;5.80;;
25299;SDS011;13241;51.208;4.432;2023-02-21T07:25:15;9.63;;;5.03;;
25299;SDS011;13241;51.208;4.432;2023-02-21T07:27:45;13.65;;;5.43;;
25299;SDS011;13241;51.208;4.432;2023-02-21T07:30:13;12.77;;;5.00;;
25299;SDS011;13241;51.208;4.432;2023-02-21T07:32:40;11.52;;;4.82;;
25299;SDS011;13241;51.208;4.432;2023-02-21T07:35:08;11.27;;;4.57;;
25299;SDS011;13241;51.208;4.432;2023-02-21T07:37:34;8.30;;;4.13;;
25299;SDS011;13241;51.208;4.432;2023-02-21T07:40:01;10.88;;;4.47;;
25299;SDS011;13241;51.208;4.432;2023-02-21T07:42:29;9.38;;;4.03;;
25299;SDS011;13241;51.208;4.432;2023-02-21T07:44:56;9.93;;;3.83;;
25299;SDS011;13241;51.208;4.432;2023-02-21T07:47:24;10.98;;;3.03;;
25299;SDS011;13241;51.208;4.432;2023-02-21T07:49:51;5.40;;;2.92;;
25299;SDS011;13241;51.208;4.432;2023-02-21T07:52:19;11.18;;;4.68;;
25299;SDS011;13241;51.208;4.432;2023-02-21T07:54:47;7.63;;;3.75;;
25299;SDS011;13241;51.208;4.432;2023-02-21T07:57:14;7.78;;;3.50;;
25299;SDS011;13241;51.208;4.432;2023-02-21T07:59:42;9.00;;;4.00;;
25299;SDS011;13241;51.208;4.432;2023-02-21T08:02:10;3.78;;;2.35;;
25299;SDS011;13241;51.208;4.432;2023-02-21T08:04:37;7.53;;;3.13;;
25299;SDS011;13241;51.208;4.432;2023-02-21T08:07:04;6.53;;;3.35;;
25299;SDS011;13241;51.208;4.432;2023-02-21T08:09:32;5.18;;;2.72;;
25299;SDS011;13241;51.208;4.432;2023-02-21T08:11:59;10.35;;;2.78;;
25299;SDS011;13241;51.208;4.432;2023-02-21T08:14:26;10.25;;;3.55;;
25299;SDS011;13241;51.208;4.432;2023-02-21T08:16:54;14.52;;;4.40;;
25299;SDS011;13241;51.208;4.432;2023-02-21T08:19:21;8.35;;;3.30;;
25299;SDS011;13241;51.208;4.432;2023-02-21T08:21:47;4.82;;;2.50;;
25299;SDS011;13241;51.208;4.432;2023-02-21T08:24:16;8.82;;;2.65;;
25299;SDS011;13241;51.208;4.432;2023-02-21T08:26:43;6.07;;;2.92;;
25299;SDS011;13241;51.208;4.432;2023-02-21T08:29:11;4.38;;;2.40;;
25299;SDS011;13241;51.208;4.432;2023-02-21T08:31:39;6.28;;;2.05;;
25299;SDS011;13241;51.208;4.432;2023-02-21T08:34:07;9.90;;;5.50;;
25299;SDS011;13241;51.208;4.432;2023-02-21T08:36:35;6.18;;;3.22;;
25299;SDS011;13241;51.208;4.432;2023-02-21T08:39:04;4.65;;;2.65;;
25299;SDS011;13241;51.208;4.432;2023-02-21T08:41:35;7.05;;;3.35;;
25299;SDS011;13241;51.208;4.432;2023-02-21T08:44:02;9.57;;;2.97;;
25299;SDS011;13241;51.208;4.432;2023-02-21T08:46:29;9.80;;;3.58;;
25299;SDS011;13241;51.208;4.432;2023-02-21T08:48:56;6.90;;;3.10;;
25299;SDS011;13241;51.208;4.432;2023-02-21T08:51:23;6.78;;;2.55;;
25299;SDS011;13241;51.208;4.432;2023-02-21T08:53:51;4.97;;;2.42;;
25299;SDS011;13241;51.208;4.432;2023-02-21T08:56:19;5.28;;;1.95;;
25299;SDS011;13241;51.208;4.432;2023-02-21T08:58:47;6.35;;;2.28;;
25299;SDS011;13241;51.208;4.432;2023-02-21T09:01:13;4.80;;;2.50;;
25299;SDS011;13241;51.208;4.432;2023-02-21T09:03:41;8.35;;;3.10;;
25299;SDS011;13241;51.208;4.432;2023-02-21T09:06:08;5.32;;;3.17;;
25299;SDS011;13241;51.208;4.432;2023-02-21T09:08:35;6.45;;;3.05;;
25299;SDS011;13241;51.208;4.432;2023-02-21T09:11:03;5.00;;;2.63;;
25299;SDS011;13241;51.208;4.432;2023-02-21T09:13:30;3.95;;;2.17;;
25299;SDS011;13241;51.208;4.432;2023-02-21T09:16:01;5.30;;;2.28;;
25299;SDS011;13241;51.208;4.432;2023-02-21T09:18:29;9.15;;;2.90;;
25299;SDS011;13241;51.208;4.432;2023-02-21T09:20:57;4.90;;;2.38;;
25299;SDS011;13241;51.208;4.432;2023-02-21T09:23:24;13.70;;;2.90;;
25299;SDS011;13241;51.208;4.432;2023-02-21T09:25:53;3.83;;;1.88;;
25299;SDS011;13241;51.208;4.432;2023-02-21T09:28:20;4.47;;;2.17;;
25299;SDS011;13241;51.208;4.432;2023-02-21T09:30:48;7.65;;;3.05;;
25299;SDS011;13241;51.208;4.432;2023-02-21T09:33:15;5.53;;;3.10;;
25299;SDS011;13241;51.208;4.432;2023-02-21T09:35:42;5.50;;;2.85;;
25299;SDS011;13241;51.208;4.432;2023-02-21T09:38:09;3.65;;;2.05;;
25299;SDS011;13241;51.208;4.432;2023-02-21T09:40:39;4.53;;;2.33;;
25299;SDS011;13241;51.208;4.432;2023-02-21T09:45:40;4.13;;;2.45;;
25299;SDS011;13241;51.208;4.432;2023-02-21T09:48:27;5.95;;;2.45;;
25299;SDS011;13241;51.208;4.432;2023-02-21T09:50:59;5.22;;;2.17;;
25299;SDS011;13241;51.208;4.432;2023-02-21T09:53:32;4.40;;;2.33;;
25299;SDS011;13241;51.208;4.432;2023-02-21T09:56:06;4.28;;;2.30;;
25299;SDS011;13241;51.208;4.432;2023-02-21T09:58:59;5.75;;;2.05;;
25299;SDS011;13241;51.208;4.432;2023-02-21T10:09:52;6.28;;;2.97;;
25299;SDS011;13241;51.208;4.432;2023-02-21T10:12:28;3.50;;;2.05;;
25299;SDS011;13241;51.208;4.432;2023-02-21T10:17:32;5.25;;;2.58;;
25299;SDS011;13241;51.208;4.432;2023-02-21T10:20:09;7.32;;;3.13;;
25299;SDS011;13241;51.208;4.432;2023-02-21T10:22:41;8.07;;;2.72;;
25299;SDS011;13241;51.208;4.432;2023-02-21T10:25:23;5.45;;;2.58;;
25299;SDS011;13241;51.208;4.432;2023-02-21T10:27:50;7.07;;;2.72;;
25299;SDS011;13241;51.208;4.432;2023-02-21T10:30:31;11.57;;;4.18;;
25299;SDS011;13241;51.208;4.432;2023-02-21T10:33:01;12.70;;;3.47;;
25299;SDS011;13241;51.208;4.432;2023-02-21T10:35:35;7.95;;;3.83;;
25299;SDS011;13241;51.208;4.432;2023-02-21T10:38:05;15.70;;;3.67;;
25299;SDS011;13241;51.208;4.432;2023-02-21T10:40:39;12.02;;;4.72;;
25299;SDS011;13241;51.208;4.432;2023-02-21T10:43:12;16.08;;;5.68;;
25299;SDS011;13241;51.208;4.432;2023-02-21T10:48:34;12.02;;;5.55;;
25299;SDS011;13241;51.208;4.432;2023-02-21T10:53:37;10.88;;;4.10;;
25299;SDS011;13241;51.208;4.432;2023-02-21T10:58:52;11.35;;;4.97;;
25299;SDS011;13241;51.208;4.432;2023-02-21T11:03:52;22.20;;;7.35;;
25299;SDS011;13241;51.208;4.432;2023-02-21T11:09:22;9.00;;;4.38;;
25299;SDS011;13241;51.208;4.432;2023-02-21T11:14:32;14.05;;;5.65;;
25299;SDS011;13241;51.208;4.432;2023-02-21T11:22:14;15.20;;;5.47;;
25299;SDS011;13241;51.208;4.432;2023-02-21T11:24:48;13.07;;;5.18;;
25299;SDS011;13241;51.208;4.432;2023-02-21T11:27:18;9.82;;;4.63;;
25299;SDS011;13241;51.208;4.432;2023-02-21T11:29:46;9.63;;;3.13;;
25299;SDS011;13241;51.208;4.432;2023-02-21T11:32:20;9.93;;;4.80;;
25299;SDS011;13241;51.208;4.432;2023-02-21T11:37:16;14.13;;;4.28;;
25299;SDS011;13241;51.208;4.432;2023-02-21T11:39:49;12.18;;;4.57;;
25299;SDS011;13241;51.208;4.432;2023-02-21T11:42:25;7.07;;;2.78;;
25299;SDS011;13241;51.208;4.432;2023-02-21T11:47:57;7.75;;;4.40;;
25299;SDS011;13241;51.208;4.432;2023-02-21T11:50:35;8.70;;;3.97;;
25299;SDS011;13241;51.208;4.432;2023-02-21T11:56:06;12.40;;;4.38;;
25299;SDS011;13241;51.208;4.432;2023-02-21T11:59:20;7.55;;;3.83;;
25299;SDS011;13241;51.208;4.432;2023-02-21T12:13:22;11.65;;;4.40;;
25299;SDS011;13241;51.208;4.432;2023-02-21T12:27:07;12.77;;;5.07;;
25299;SDS011;13241;51.208;4.432;2023-02-21T12:35:26;13.90;;;5.25;;
25299;SDS011;13241;51.208;4.432;2023-02-21T12:38:34;15.43;;;5.20;;
25299;SDS011;13241;51.208;4.432;2023-02-21T12:44:18;10.48;;;4.70;;
25299;SDS011;13241;51.208;4.432;2023-02-21T12:47:06;9.60;;;4.95;;
25299;SDS011;13241;51.208;4.432;2023-02-21T12:52:59;10.98;;;5.68;;
25299;SDS011;13241;51.208;4.432;2023-02-21T12:55:34;10.63;;;5.82;;
25299;SDS011;13241;51.208;4.432;2023-02-21T12:58:20;12.75;;;5.35;;
25299;SDS011;13241;51.208;4.432;2023-02-21T13:01:07;14.50;;;6.25;;
25299;SDS011;13241;51.208;4.432;2023-02-21T13:06:33;13.10;;;6.30;;
25299;SDS011;13241;51.208;4.432;2023-02-21T13:11:57;15.32;;;6.95;;
25299;SDS011;13241;51.208;4.432;2023-02-21T13:14:27;11.25;;;5.15;;
25299;SDS011;13241;51.208;4.432;2023-02-21T13:17:13;20.35;;;6.20;;
25299;SDS011;13241;51.208;4.432;2023-02-21T13:19:58;16.70;;;6.30;;
25299;SDS011;13241;51.208;4.432;2023-02-21T13:22:26;17.95;;;7.63;;
25299;SDS011;13241;51.208;4.432;2023-02-21T13:25:24;12.65;;;5.50;;
25299;SDS011;13241;51.208;4.432;2023-02-21T13:28:23;17.52;;;7.20;;
25299;SDS011;13241;51.208;4.432;2023-02-21T13:30:56;17.17;;;7.38;;
25299;SDS011;13241;51.208;4.432;2023-02-21T13:41:37;20.33;;;8.98;;
25299;SDS011;13241;51.208;4.432;2023-02-21T13:44:08;21.45;;;9.10;;
25299;SDS011;13241;51.208;4.432;2023-02-21T13:52:23;14.15;;;6.57;;
25299;SDS011;13241;51.208;4.432;2023-02-21T13:57:47;17.00;;;7.10;;
25299;SDS011;13241;51.208;4.432;2023-02-21T14:03:02;14.27;;;5.57;;
25299;SDS011;13241;51.208;4.432;2023-02-21T14:10:57;21.42;;;9.88;;
25299;SDS011;13241;51.208;4.432;2023-02-21T14:13:36;21.98;;;10.30;;
25299;SDS011;13241;51.208;4.432;2023-02-21T14:18:53;22.35;;;9.55;;
25299;SDS011;13241;51.208;4.432;2023-02-21T14:21:24;24.13;;;10.15;;
25299;SDS011;13241;51.208;4.432;2023-02-21T14:26:40;24.25;;;10.27;;
25299;SDS011;13241;51.208;4.432;2023-02-21T14:31:49;24.52;;;9.88;;
25299;SDS011;13241;51.208;4.432;2023-02-21T14:34:23;29.15;;;11.27;;
25299;SDS011;13241;51.208;4.432;2023-02-21T14:37:21;26.17;;;11.65;;
25299;SDS011;13241;51.208;4.432;2023-02-21T14:40:38;26.65;;;11.77;;
25299;SDS011;13241;51.208;4.432;2023-02-21T14:53:30;30.33;;;11.57;;
25299;SDS011;13241;51.208;4.432;2023-02-21T15:03:20;21.75;;;11.20;;
25299;SDS011;13241;51.208;4.432;2023-02-21T15:05:35;28.35;;;10.48;;
25299;SDS011;13241;51.208;4.432;2023-02-21T15:08:16;24.00;;;9.95;;
25299;SDS011;13241;51.208;4.432;2023-02-21T15:10:49;19.50;;;9.30;;
25299;SDS011;13241;51.208;4.432;2023-02-21T15:16:03;18.15;;;7.97;;
25299;SDS011;13241;51.208;4.432;2023-02-21T15:18:36;14.32;;;7.18;;
25299;SDS011;13241;51.208;4.432;2023-02-21T15:23:43;22.80;;;10.52;;
25299;SDS011;13241;51.208;4.432;2023-02-21T15:31:48;24.08;;;10.40;;
25299;SDS011;13241;51.208;4.432;2023-02-21T15:34:24;25.00;;;9.93;;
25299;SDS011;13241;51.208;4.432;2023-02-21T15:37:07;20.90;;;9.65;;
25299;SDS011;13241;51.208;4.432;2023-02-21T15:39:48;17.27;;;7.75;;
25299;SDS011;13241;51.208;4.432;2023-02-21T15:42:24;13.13;;;6.43;;
25299;SDS011;13241;51.208;4.432;2023-02-21T15:44:56;18.30;;;7.65;;
25299;SDS011;13241;51.208;4.432;2023-02-21T15:47:27;23.60;;;10.23;;
25299;SDS011;13241;51.208;4.432;2023-02-21T15:52:38;24.92;;;10.25;;
25299;SDS011;13241;51.208;4.432;2023-02-21T15:57:46;24.63;;;9.05;;
25299;SDS011;13241;51.208;4.432;2023-02-21T16:00:28;24.40;;;10.10;;
25299;SDS011;13241;51.208;4.432;2023-02-21T16:05:51;23.98;;;10.52;;
25299;SDS011;13241;51.208;4.432;2023-02-21T16:08:20;28.45;;;10.95;;
25299;SDS011;13241;51.208;4.432;2023-02-21T16:10:47;32.60;;;11.95;;
25299;SDS011;13241;51.208;4.432;2023-02-21T16:13:14;26.08;;;11.23;;
25299;SDS011;13241;51.208;4.432;2023-02-21T16:15:41;24.75;;;9.93;;
25299;SDS011;13241;51.208;4.432;2023-02-21T16:18:09;23.48;;;9.95;;
25299;SDS011;13241;51.208;4.432;2023-02-21T16:26:18;19.10;;;6.35;;
25299;SDS011;13241;51.208;4.432;2023-02-21T16:28:54;17.88;;;6.03;;
25299;SDS011;13241;51.208;4.432;2023-02-21T16:31:27;16.05;;;6.30;;
25299;SDS011;13241;51.208;4.432;2023-02-21T16:33:56;12.20;;;6.43;;
25299;SDS011;13241;51.208;4.432;2023-02-21T16:36:24;15.20;;;5.18;;
25299;SDS011;13241;51.208;4.432;2023-02-21T16:38:57;20.45;;;8.07;;
25299;SDS011;13241;51.208;4.432;2023-02-21T16:41:26;17.05;;;7.07;;
25299;SDS011;13241;51.208;4.432;2023-02-21T16:43:54;17.75;;;6.70;;
25299;SDS011;13241;51.208;4.432;2023-02-21T16:46:25;19.00;;;7.18;;
25299;SDS011;13241;51.208;4.432;2023-02-21T16:48:55;20.33;;;7.53;;
25299;SDS011;13241;51.208;4.432;2023-02-21T16:51:24;15.60;;;6.93;;
25299;SDS011;13241;51.208;4.432;2023-02-21T16:53:50;18.20;;;6.30;;
25299;SDS011;13241;51.208;4.432;2023-02-21T16:56:17;17.45;;;6.95;;
25299;SDS011;13241;51.208;4.432;2023-02-21T16:58:45;23.48;;;8.52;;
25299;SDS011;13241;51.208;4.432;2023-02-21T17:01:19;19.10;;;8.00;;
25299;SDS011;13241;51.208;4.432;2023-02-21T17:03:53;19.88;;;8.05;;
25299;SDS011;13241;51.208;4.432;2023-02-21T17:06:21;30.38;;;10.88;;
25299;SDS011;13241;51.208;4.432;2023-02-21T17:08:49;20.13;;;7.45;;
25299;SDS011;13241;51.208;4.432;2023-02-21T17:11:17;17.90;;;7.75;;
25299;SDS011;13241;51.208;4.432;2023-02-21T17:13:44;17.75;;;7.47;;
25299;SDS011;13241;51.208;4.432;2023-02-21T17:16:11;21.33;;;8.05;;
25299;SDS011;13241;51.208;4.432;2023-02-21T17:18:38;32.15;;;11.05;;
25299;SDS011;13241;51.208;4.432;2023-02-21T17:21:04;19.92;;;6.45;;
25299;SDS011;13241;51.208;4.432;2023-02-21T17:23:31;18.92;;;6.60;;
25299;SDS011;13241;51.208;4.432;2023-02-21T17:25:58;14.88;;;7.45;;
25299;SDS011;13241;51.208;4.432;2023-02-21T17:28:24;25.98;;;6.03;;
25299;SDS011;13241;51.208;4.432;2023-02-21T17:30:52;18.17;;;7.03;;
25299;SDS011;13241;51.208;4.432;2023-02-21T17:33:19;17.63;;;5.32;;
25299;SDS011;13241;51.208;4.432;2023-02-21T17:35:45;19.83;;;7.38;;
25299;SDS011;13241;51.208;4.432;2023-02-21T17:38:12;11.48;;;5.45;;
25299;SDS011;13241;51.208;4.432;2023-02-21T17:40:39;21.95;;;8.70;;
25299;SDS011;13241;51.208;4.432;2023-02-21T17:43:06;17.67;;;7.47;;
25299;SDS011;13241;51.208;4.432;2023-02-21T17:45:34;23.00;;;8.73;;
25299;SDS011;13241;51.208;4.432;2023-02-21T17:48:04;21.50;;;8.98;;
25299;SDS011;13241;51.208;4.432;2023-02-21T17:50:31;20.27;;;8.57;;
25299;SDS011;13241;51.208;4.432;2023-02-21T17:52:58;21.90;;;9.35;;
25299;SDS011;13241;51.208;4.432;2023-02-21T17:55:25;29.55;;;11.20;;
25299;SDS011;13241;51.208;4.432;2023-02-21T17:57:54;25.60;;;10.98;;
25299;SDS011;13241;51.208;4.432;2023-02-21T18:00:21;32.65;;;13.18;;
25299;SDS011;13241;51.208;4.432;2023-02-21T18:02:51;28.60;;;11.77;;
25299;SDS011;13241;51.208;4.432;2023-02-21T18:05:19;29.55;;;12.57;;
25299;SDS011;13241;51.208;4.432;2023-02-21T18:07:50;28.02;;;11.10;;
25299;SDS011;13241;51.208;4.432;2023-02-21T18:10:18;27.25;;;12.20;;
25299;SDS011;13241;51.208;4.432;2023-02-21T18:12:47;31.50;;;10.70;;
25299;SDS011;13241;51.208;4.432;2023-02-21T18:15:17;30.17;;;11.27;;
25299;SDS011;13241;51.208;4.432;2023-02-21T18:17:46;30.48;;;11.90;;
25299;SDS011;13241;51.208;4.432;2023-02-21T18:20:12;31.65;;;13.20;;